Time;durP1;ratioP1;P1;durP2;ratioP2;P2;SDS_P1;SDS_P2;PMS_P1;PMS_P2;Temp;Humidity;BMP_temperature;BMP_pressure;BME280_temperature;BME280_humidity;BME280_pressure;Samples;Min_cycle;Max_cycle;Signal;HPM_P1;HPM_P2
2023/07/30 00:01:24;;;;;;;;;;;26.70;99.90;;;;;;5134676;27;20386;-75
2023/07/30 00:03:50;;;;;;;;;;;26.70;99.90;;;;;;5134919;27;20036;-75
2023/07/30 00:06:16;;;;;;;;;;;26.70;99.90;;;;;;5134615;27;19979;-76
2023/07/30 00:08:42;;;;;;;;;;;26.70;99.90;;;;;;5135077;27;19962;-74
2023/07/30 00:11:08;;;;;;;;;;;26.60;99.90;;;;;;5134462;27;19907;-74
2023/07/30 00:13:33;;;;;;;;;;;26.60;99.90;;;;;;5135021;27;19911;-75
2023/07/30 00:15:59;;;;;;;;;;;26.60;99.90;;;;;;5134855;27;19907;-75
2023/07/30 00:18:25;;;;;;;;;;;26.60;99.90;;;;;;5134464;27;20256;-75
2023/07/30 00:20:51;;;;;;;;;;;26.70;99.90;;;;;;5133002;27;19908;-75
2023/07/30 00:23:16;;;;;;;;;;;26.70;99.90;;;;;;5134353;27;19996;-75
2023/07/30 00:25:42;;;;;;;;;;;26.80;99.90;;;;;;5134144;27;20369;-75
2023/07/30 00:28:08;;;;;;;;;;;26.80;99.90;;;;;;5132948;27;19903;-75
2023/07/30 00:30:34;;;;;;;;;;;26.90;99.90;;;;;;5134179;27;19919;-75
2023/07/30 00:33:00;;;;;;;;;;;26.90;99.90;;;;;;5132871;27;19910;-75
2023/07/30 00:35:26;;;;;;;;;;;26.80;99.90;;;;;;5134879;27;19919;-75
2023/07/30 00:37:51;;;;;;;;;;;26.80;99.90;;;;;;5134420;27;19907;-75
2023/07/30 00:40:17;;;;;;;;;;;26.80;99.90;;;;;;5134118;27;19914;-75
2023/07/30 00:42:43;;;;;;;;;;;26.90;99.90;;;;;;5134855;27;19903;-75
2023/07/30 00:45:09;;;;;;;;;;;26.80;99.90;;;;;;5134980;27;19994;-75
2023/07/30 00:47:36;;;;;;;;;;;26.80;99.90;;;;;;5134089;27;20355;-75
2023/07/30 00:50:02;;;;;;;;;;;26.60;99.90;;;;;;5133954;27;19919;-76
2023/07/30 00:52:29;;;;;;;;;;;26.60;99.90;;;;;;5134440;27;19903;-75
2023/07/30 00:54:56;;;;;;;;;;;26.50;99.90;;;;;;5134042;27;19911;-75
2023/07/30 00:57:23;;;;;;;;;;;26.40;99.90;;;;;;5134476;27;19903;-75
2023/07/30 00:59:49;;;;;;;;;;;26.30;99.90;;;;;;5133886;27;19904;-75
2023/07/30 01:02:14;;;;;;;;;;;26.30;99.90;;;;;;5134392;27;19903;-75
2023/07/30 01:04:40;;;;;;;;;;;26.20;99.90;;;;;;5133946;27;19911;-75
2023/07/30 01:07:06;;;;;;;;;;;26.20;99.90;;;;;;5134433;27;19956;-75
2023/07/30 01:09:32;;;;;;;;;;;26.20;99.90;;;;;;5132294;28;19958;-75
2023/07/30 01:12:00;;;;;;;;;;;26.00;99.90;;;;;;5133727;27;19903;-74
2023/07/30 01:14:26;;;;;;;;;;;25.90;99.90;;;;;;5132557;28;19990;-75
2023/07/30 01:16:52;;;;;;;;;;;26.00;99.90;;;;;;5133789;27;19939;-75
2023/07/30 01:19:18;;;;;;;;;;;26.00;99.90;;;;;;5134241;27;19948;-75
2023/07/30 01:21:44;;;;;;;;;;;25.90;99.90;;;;;;5138269;27;19907;-75
2023/07/30 01:24:10;;;;;;;;;;;25.80;99.90;;;;;;5137897;27;19969;-75
2023/07/30 01:26:46;;;;;;;;;;;25.80;99.90;;;;;;5137707;27;20044;-74
2023/07/30 01:29:19;;;;;;;;;;;25.80;99.90;;;;;;5137951;27;19911;-74
2023/07/30 01:31:46;;;;;;;;;;;25.80;99.90;;;;;;5137656;27;20352;-75
2023/07/30 01:34:12;;;;;;;;;;;25.80;99.90;;;;;;5137641;27;19915;-75
2023/07/30 01:36:39;;;;;;;;;;;25.70;99.90;;;;;;5137654;27;20001;-74
2023/07/30 01:39:04;;;;;;;;;;;25.70;99.90;;;;;;5137618;27;19904;-74
2023/07/30 01:41:30;;;;;;;;;;;25.70;99.90;;;;;;5135974;27;20270;-73
2023/07/30 01:43:56;;;;;;;;;;;25.70;99.90;;;;;;5137696;27;20075;-75
2023/07/30 01:46:22;;;;;;;;;;;25.60;99.90;;;;;;5137526;27;19903;-75
2023/07/30 01:48:48;;;;;;;;;;;25.60;99.90;;;;;;5135936;27;19908;-75
2023/07/30 01:51:13;;;;;;;;;;;25.70;99.90;;;;;;5137208;27;20359;-75
2023/07/30 01:53:39;;;;;;;;;;;25.70;99.90;;;;;;5137664;27;20010;-75
2023/07/30 01:56:05;;;;;;;;;;;25.70;99.90;;;;;;5135697;27;19909;-75
2023/07/30 01:58:31;;;;;;;;;;;25.80;99.90;;;;;;5137707;27;19952;-76
2023/07/30 02:00:57;;;;;;;;;;;25.70;99.90;;;;;;5137388;27;20342;-74
2023/07/30 02:03:22;;;;;;;;;;;25.70;99.90;;;;;;5137093;27;19903;-73
2023/07/30 02:05:48;;;;;;;;;;;25.60;99.90;;;;;;5137139;27;19903;-75
2023/07/30 02:08:15;;;;;;;;;;;25.60;99.90;;;;;;5136917;27;20317;-75
2023/07/30 02:10:41;;;;;;;;;;;25.70;99.90;;;;;;5136682;27;19921;-74
2023/07/30 02:13:07;;;;;;;;;;;25.60;99.90;;;;;;5136856;27;20042;-75
2023/07/30 02:15:33;;;;;;;;;;;25.50;99.90;;;;;;5137404;27;19951;-75
2023/07/30 02:17:59;;;;;;;;;;;25.40;99.90;;;;;;5135544;27;19950;-75
2023/07/30 02:20:24;;;;;;;;;;;25.50;99.90;;;;;;5136712;27;19904;-75
2023/07/30 02:22:50;;;;;;;;;;;25.50;99.90;;;;;;5135339;27;19911;-75
2023/07/30 02:25:16;;;;;;;;;;;25.50;99.90;;;;;;5137109;27;19910;-75
2023/07/30 02:27:42;;;;;;;;;;;25.50;99.90;;;;;;5136682;27;19903;-75
2023/07/30 02:30:08;;;;;;;;;;;25.50;99.90;;;;;;5135161;27;19912;-75
2023/07/30 02:32:34;;;;;;;;;;;25.50;99.90;;;;;;5135408;27;19956;-75
2023/07/30 02:34:59;;;;;;;;;;;25.30;99.90;;;;;;5136388;27;19922;-74
2023/07/30 02:37:25;;;;;;;;;;;25.30;99.90;;;;;;5136444;27;20006;-74
2023/07/30 02:39:51;;;;;;;;;;;25.40;99.90;;;;;;5136962;27;20351;-75
2023/07/30 02:42:17;;;;;;;;;;;25.40;99.90;;;;;;5136178;27;19911;-74
2023/07/30 02:44:42;;;;;;;;;;;25.40;99.90;;;;;;5136882;27;20320;-75
2023/07/30 02:47:08;;;;;;;;;;;25.30;99.90;;;;;;5136355;27;19911;-75
2023/07/30 02:49:34;;;;;;;;;;;25.40;99.90;;;;;;5136158;27;19946;-75
2023/07/30 02:52:00;;;;;;;;;;;25.40;99.90;;;;;;5136121;27;19948;-75
2023/07/30 02:54:26;;;;;;;;;;;25.40;99.90;;;;;;5134785;27;19908;-75
2023/07/30 02:56:52;;;;;;;;;;;25.40;99.90;;;;;;5135919;27;19915;-74
2023/07/30 02:59:17;;;;;;;;;;;25.30;99.90;;;;;;5135994;27;19939;-74
2023/07/30 03:01:44;;;;;;;;;;;25.30;99.90;;;;;;5135987;27;20013;-76
2023/07/30 03:04:10;;;;;;;;;;;25.10;99.90;;;;;;5136495;27;19903;-75
2023/07/30 03:06:36;;;;;;;;;;;25.10;99.90;;;;;;5134531;27;20252;-75
2023/07/30 03:09:02;;;;;;;;;;;25.00;99.90;;;;;;5136046;27;19920;-74
2023/07/30 03:11:28;;;;;;;;;;;25.10;99.90;;;;;;5135690;27;19921;-75
2023/07/30 03:13:55;;;;;;;;;;;25.10;99.90;;;;;;5134323;27;20002;-74
2023/07/30 03:16:21;;;;;;;;;;;25.20;99.90;;;;;;5135700;27;19903;-75
2023/07/30 03:18:46;;;;;;;;;;;25.20;99.90;;;;;;5134242;27;19910;-76
2023/07/30 03:21:12;;;;;;;;;;;25.20;99.90;;;;;;5135785;27;20309;-75
2023/07/30 03:23:38;;;;;;;;;;;25.30;99.90;;;;;;5135535;27;19935;-75
2023/07/30 03:26:04;;;;;;;;;;;25.30;99.90;;;;;;5135721;27;19926;-76
2023/07/30 03:28:30;;;;;;;;;;;25.40;99.90;;;;;;5135959;27;19903;-76
2023/07/30 03:30:55;;;;;;;;;;;25.40;99.90;;;;;;5135356;27;19948;-75
2023/07/30 03:33:21;;;;;;;;;;;25.30;99.90;;;;;;5133723;27;19952;-75
2023/07/30 03:35:48;;;;;;;;;;;25.30;99.90;;;;;;5135531;27;19968;-75
2023/07/30 03:38:13;;;;;;;;;;;25.20;99.90;;;;;;5135572;27;19903;-74
2023/07/30 03:40:39;;;;;;;;;;;25.20;99.90;;;;;;5134656;27;20429;-75
2023/07/30 03:43:05;;;;;;;;;;;25.10;99.90;;;;;;5135338;27;19913;-75
2023/07/30 03:45:31;;;;;;;;;;;25.10;99.90;;;;;;5135425;27;19908;-75
2023/07/30 03:47:57;;;;;;;;;;;25.20;99.90;;;;;;5135181;27;19911;-75
2023/07/30 03:50:23;;;;;;;;;;;25.20;99.90;;;;;;5135068;27;19911;-74
2023/07/30 03:52:49;;;;;;;;;;;25.10;99.90;;;;;;5135082;27;19949;-76
2023/07/30 03:55:15;;;;;;;;;;;25.20;99.90;;;;;;5134837;27;19904;-75
2023/07/30 03:57:41;;;;;;;;;;;25.10;99.90;;;;;;5133480;27;19910;-75
2023/07/30 04:00:07;;;;;;;;;;;25.10;99.90;;;;;;5133448;27;19986;-75
2023/07/30 04:02:33;;;;;;;;;;;25.10;99.90;;;;;;5135062;27;20262;-75
2023/07/30 04:04:58;;;;;;;;;;;25.20;99.90;;;;;;5134960;27;19953;-75
2023/07/30 04:07:24;;;;;;;;;;;25.20;99.90;;;;;;5134654;27;19957;-74
2023/07/30 04:09:50;;;;;;;;;;;25.10;99.90;;;;;;5135167;27;19933;-75
2023/07/30 04:12:16;;;;;;;;;;;25.00;99.90;;;;;;5134533;27;20003;-75
2023/07/30 04:14:42;;;;;;;;;;;25.00;99.90;;;;;;5134504;27;19907;-75
2023/07/30 04:17:07;;;;;;;;;;;25.00;99.90;;;;;;5135039;27;19903;-75
2023/07/30 04:19:33;;;;;;;;;;;24.90;99.90;;;;;;5134472;27;19998;-74
2023/07/30 04:21:59;;;;;;;;;;;25.00;99.90;;;;;;5134668;27;20267;-75
2023/07/30 04:24:26;;;;;;;;;;;25.00;99.90;;;;;;5134846;27;19904;-75
2023/07/30 04:26:52;;;;;;;;;;;25.10;99.90;;;;;;5134241;27;19908;-75
2023/07/30 04:29:17;;;;;;;;;;;25.20;99.90;;;;;;5134242;27;19911;-75
2023/07/30 04:31:43;;;;;;;;;;;25.20;99.90;;;;;;5134406;27;19979;-75
2023/07/30 04:34:09;;;;;;;;;;;25.30;99.90;;;;;;5134246;27;19968;-75
2023/07/30 04:36:35;;;;;;;;;;;25.30;99.90;;;;;;5134766;27;19903;-75
2023/07/30 04:39:01;;;;;;;;;;;25.30;99.90;;;;;;5134213;27;19907;-75
2023/07/30 04:41:26;;;;;;;;;;;25.30;99.90;;;;;;5132689;27;19904;-74
2023/07/30 04:43:52;;;;;;;;;;;25.40;99.90;;;;;;5132763;27;19903;-75
2023/07/30 04:46:18;;;;;;;;;;;25.50;99.90;;;;;;5134123;27;19931;-75
2023/07/30 04:48:44;;;;;;;;;;;25.30;99.90;;;;;;5134028;27;19907;-75
2023/07/30 04:51:09;;;;;;;;;;;25.40;99.90;;;;;;5132631;27;19908;-75
2023/07/30 04:53:35;;;;;;;;;;;25.40;99.90;;;;;;5132594;27;19911;-75
2023/07/30 04:56:01;;;;;;;;;;;25.50;99.90;;;;;;5133368;28;20374;-74
2023/07/30 04:58:27;;;;;;;;;;;25.60;99.90;;;;;;5134495;27;19952;-75
2023/07/30 05:00:53;;;;;;;;;;;25.70;99.90;;;;;;5133962;28;19904;-74
2023/07/30 05:03:18;;;;;;;;;;;25.80;99.90;;;;;;5134418;28;19904;-75
2023/07/30 05:05:44;;;;;;;;;;;25.70;99.90;;;;;;5134238;27;20001;-75
2023/07/30 05:08:10;;;;;;;;;;;25.70;99.90;;;;;;5133897;28;19943;-75
2023/07/30 05:10:36;;;;;;;;;;;25.70;99.90;;;;;;5133696;27;19919;-75
2023/07/30 05:13:02;;;;;;;;;;;25.80;99.90;;;;;;5134134;27;19907;-74
2023/07/30 05:15:28;;;;;;;;;;;25.70;99.90;;;;;;5133966;27;19903;-75
2023/07/30 05:17:54;;;;;;;;;;;25.90;99.90;;;;;;5133867;27;19903;-75
2023/07/30 05:20:20;;;;;;;;;;;26.10;99.90;;;;;;5133782;27;19903;-75
2023/07/30 05:22:45;;;;;;;;;;;26.20;99.90;;;;;;5134013;27;19903;-75
2023/07/30 05:25:11;;;;;;;;;;;26.40;99.90;;;;;;5133965;28;19908;-75
2023/07/30 05:27:37;;;;;;;;;;;27.00;99.90;;;;;;5132112;28;19909;-75
2023/07/30 05:30:03;;;;;;;;;;;28.10;99.90;;;;;;5133615;28;19935;-75
2023/07/30 05:32:29;;;;;;;;;;;29.30;99.90;;;;;;5133899;27;19903;-75
2023/07/30 05:34:54;;;;;;;;;;;29.60;99.90;;;;;;5133445;27;19998;-75
2023/07/30 05:37:20;;;;;;;;;;;30.20;99.90;;;;;;5134100;28;20304;-75
2023/07/30 05:39:46;;;;;;;;;;;30.80;99.90;;;;;;5133601;27;20267;-75
2023/07/30 05:42:12;;;;;;;;;;;31.40;99.90;;;;;;5132128;28;19908;-75
2023/07/30 05:44:38;;;;;;;;;;;31.20;99.90;;;;;;5133787;28;20029;-75
2023/07/30 05:47:03;;;;;;;;;;;32.10;99.90;;;;;;5132200;28;19910;-75
2023/07/30 05:49:29;;;;;;;;;;;32.90;99.90;;;;;;5133705;28;19916;-75
2023/07/30 05:51:55;;;;;;;;;;;32.10;99.90;;;;;;5133255;27;19909;-74
2023/07/30 05:54:21;;;;;;;;;;;32.50;99.90;;;;;;5133487;27;19903;-74
2023/07/30 05:56:47;;;;;;;;;;;33.30;99.90;;;;;;5131819;28;19907;-75
2023/07/30 05:59:15;;;;;;;;;;;33.60;99.90;;;;;;5132062;28;19974;-74
2023/07/30 06:01:41;;;;;;;;;;;33.80;99.90;;;;;;5132086;28;20022;-74
2023/07/30 06:04:08;;;;;;;;;;;34.70;99.90;;;;;;5133868;27;19903;-74
2023/07/30 06:06:33;;;;;;;;;;;33.60;99.90;;;;;;5135558;27;19916;-73
2023/07/30 06:08:59;;;;;;;;;;;32.80;99.90;;;;;;5136931;27;19907;-74
2023/07/30 06:11:25;;;;;;;;;;;32.90;99.90;;;;;;5136780;27;20338;-74
2023/07/30 06:13:51;;;;;;;;;;;35.00;99.90;;;;;;5136894;27;19904;-75
2023/07/30 06:16:18;;;;;;;;;;;35.30;99.90;;;;;;5137341;27;20007;-74
2023/07/30 06:18:44;;;;;;;;;;;36.00;99.90;;;;;;5136819;27;20366;-74
2023/07/30 06:21:10;;;;;;;;;;;36.90;99.90;;;;;;5137274;27;19919;-74
2023/07/30 06:23:36;;;;;;;;;;;38.50;99.90;;;;;;5136986;27;19914;-75
2023/07/30 06:26:01;;;;;;;;;;;39.20;99.90;;;;;;5136520;27;19914;-75
2023/07/30 06:28:27;;;;;;;;;;;39.00;99.70;;;;;;5137138;27;19903;-75
2023/07/30 06:30:53;;;;;;;;;;;38.10;99.90;;;;;;5135110;27;19946;-75
2023/07/30 06:33:19;;;;;;;;;;;36.20;99.90;;;;;;5136414;27;20324;-74
2023/07/30 06:35:45;;;;;;;;;;;37.10;99.90;;;;;;5136571;27;20283;-74
2023/07/30 06:38:11;;;;;;;;;;;36.20;99.30;;;;;;5136890;27;20355;-74
2023/07/30 06:40:37;;;;;;;;;;;36.70;95.80;;;;;;5136151;27;19911;-74
2023/07/30 06:43:02;;;;;;;;;;;37.00;94.00;;;;;;5136785;27;19903;-74
2023/07/30 06:45:28;;;;;;;;;;;35.90;94.50;;;;;;5135580;27;19904;-75
2023/07/30 06:47:54;;;;;;;;;;;36.30;94.00;;;;;;5136358;27;19909;-74
2023/07/30 06:50:20;;;;;;;;;;;35.80;93.80;;;;;;5136091;27;19911;-74
2023/07/30 06:52:45;;;;;;;;;;;36.40;94.30;;;;;;5136131;27;19926;-74
2023/07/30 06:55:11;;;;;;;;;;;37.50;92.60;;;;;;5136479;27;19914;-74
2023/07/30 06:57:37;;;;;;;;;;;37.90;91.80;;;;;;5134551;27;20227;-74
2023/07/30 07:00:04;;;;;;;;;;;36.70;92.00;;;;;;5135966;27;19903;-74
2023/07/30 07:02:30;;;;;;;;;;;34.40;95.10;;;;;;5136176;27;19990;-74
2023/07/30 07:04:56;;;;;;;;;;;34.90;99.80;;;;;;5135897;27;20347;-74
2023/07/30 07:07:22;;;;;;;;;;;36.10;99.90;;;;;;5134490;27;19907;-74
2023/07/30 07:09:47;;;;;;;;;;;37.20;99.30;;;;;;5135699;27;19911;-74
2023/07/30 07:12:13;;;;;;;;;;;38.60;97.70;;;;;;5135542;27;20371;-74
2023/07/30 07:14:40;;;;;;;;;;;39.20;97.00;;;;;;5136289;27;19910;-75
2023/07/30 07:17:06;;;;;;;;;;;40.70;95.80;;;;;;5135362;27;19909;-75
2023/07/30 07:19:36;;;;;;;;;;;40.90;95.60;;;;;;5136164;27;20009;-74
2023/07/30 07:22:05;;;;;;;;;;;41.20;94.90;;;;;;5135842;27;19932;-75
2023/07/30 07:24:31;;;;;;;;;;;41.40;94.70;;;;;;5135617;27;19955;-76
2023/07/30 07:26:57;;;;;;;;;;;41.40;94.50;;;;;;5135193;27;19978;-75
2023/07/30 07:29:22;;;;;;;;;;;41.20;94.40;;;;;;5135361;27;20010;-75
2023/07/30 07:31:48;;;;;;;;;;;40.90;94.80;;;;;;5135809;27;20003;-75
2023/07/30 07:34:14;;;;;;;;;;;40.20;95.30;;;;;;5135154;27;19919;-75
2023/07/30 07:36:40;;;;;;;;;;;39.70;95.60;;;;;;5135964;27;19903;-75
2023/07/30 07:39:06;;;;;;;;;;;38.20;96.50;;;;;;5135337;27;19903;-75
2023/07/30 07:41:32;;;;;;;;;;;38.10;97.20;;;;;;5135546;27;19907;-75
2023/07/30 07:43:58;;;;;;;;;;;38.00;97.40;;;;;;5135138;27;19994;-75
2023/07/30 07:46:27;;;;;;;;;;;37.60;97.60;;;;;;5134981;27;19919;-75
2023/07/30 07:48:53;;;;;;;;;;;37.40;97.70;;;;;;5133683;27;19903;-74
2023/07/30 07:51:18;;;;;;;;;;;37.10;98.10;;;;;;5134451;27;19910;-74
2023/07/30 07:53:44;;;;;;;;;;;37.10;98.40;;;;;;5135683;27;19904;-74
2023/07/30 07:56:10;;;;;;;;;;;37.10;98.60;;;;;;5134985;27;19956;-73
2023/07/30 07:58:36;;;;;;;;;;;36.70;98.60;;;;;;5135231;27;20286;-74
2023/07/30 08:01:02;;;;;;;;;;;36.40;99.00;;;;;;5135010;27;20003;-73
2023/07/30 08:03:28;;;;;;;;;;;36.00;99.30;;;;;;5133355;27;19979;-72
2023/07/30 08:05:53;;;;;;;;;;;36.10;99.30;;;;;;5133367;27;20301;-73
2023/07/30 08:08:19;;;;;;;;;;;35.50;99.90;;;;;;5134849;27;19903;-73
2023/07/30 08:10:47;;;;;;;;;;;36.10;99.90;;;;;;5134323;27;19911;-75
2023/07/30 08:13:13;;;;;;;;;;;36.20;99.30;;;;;;5134823;27;19960;-74
2023/07/30 08:15:39;;;;;;;;;;;36.70;99.20;;;;;;5133430;27;19910;-75
2023/07/30 08:18:05;;;;;;;;;;;36.90;99.20;;;;;;5134659;27;19996;-74
2023/07/30 08:20:31;;;;;;;;;;;36.50;99.50;;;;;;5133064;27;19990;-74
2023/07/30 08:22:57;;;;;;;;;;;36.90;99.60;;;;;;5132907;27;20270;-74
2023/07/30 08:25:22;;;;;;;;;;;36.70;99.70;;;;;;5132863;27;19914;-74
2023/07/30 08:27:48;;;;;;;;;;;36.50;99.10;;;;;;5134193;27;19948;-74
2023/07/30 08:30:14;;;;;;;;;;;36.50;98.90;;;;;;5133300;27;19930;-74
2023/07/30 08:32:41;;;;;;;;;;;36.50;99.20;;;;;;5132825;27;19907;-74
2023/07/30 08:35:07;;;;;;;;;;;36.40;99.20;;;;;;5134049;27;19938;-74
2023/07/30 08:37:33;;;;;;;;;;;36.80;98.80;;;;;;5134140;27;19907;-74
2023/07/30 08:39:59;;;;;;;;;;;36.50;99.30;;;;;;5132753;27;19963;-74
2023/07/30 08:42:25;;;;;;;;;;;36.50;99.40;;;;;;5132569;27;19908;-74
2023/07/30 08:44:51;;;;;;;;;;;36.20;99.60;;;;;;5134162;27;19955;-74
2023/07/30 08:47:16;;;;;;;;;;;36.00;99.80;;;;;;5134185;27;20005;-74
2023/07/30 08:49:42;;;;;;;;;;;36.10;99.70;;;;;;5134003;27;19915;-74
2023/07/30 08:52:09;;;;;;;;;;;35.70;99.90;;;;;;5134527;27;19903;-74
2023/07/30 08:54:36;;;;;;;;;;;35.70;99.90;;;;;;5133963;27;19903;-74
2023/07/30 08:57:03;;;;;;;;;;;36.00;99.60;;;;;;5133748;27;19907;-74
2023/07/30 08:59:36;;;;;;;;;;;36.40;99.70;;;;;;5133872;27;19942;-74
2023/07/30 09:02:02;;;;;;;;;;;36.50;99.60;;;;;;5133805;27;20290;-75
2023/07/30 09:04:29;;;;;;;;;;;36.50;99.70;;;;;;5132559;28;20031;-77
2023/07/30 09:06:55;;;;;;;;;;;36.30;99.90;;;;;;5133873;27;19903;-76
2023/07/30 09:09:21;;;;;;;;;;;36.00;99.90;;;;;;5134145;27;20332;-75
2023/07/30 09:11:56;;;;;;;;;;;35.90;99.90;;;;;;5132209;28;19907;-75
2023/07/30 09:14:22;;;;;;;;;;;35.90;99.90;;;;;;5133744;27;19921;-75
2023/07/30 09:16:48;;;;;;;;;;;35.70;99.90;;;;;;5133969;27;19904;-75
2023/07/30 09:19:17;;;;;;;;;;;35.20;99.90;;;;;;5133697;28;19904;-75
2023/07/30 09:21:43;;;;;;;;;;;35.00;99.90;;;;;;5133703;27;19993;-75
2023/07/30 09:24:09;;;;;;;;;;;34.80;99.90;;;;;;5133743;27;19964;-75
2023/07/30 09:26:45;;;;;;;;;;;34.90;99.90;;;;;;5132060;28;19903;-75
2023/07/30 09:29:11;;;;;;;;;;;35.30;99.90;;;;;;5133530;27;19954;-75
2023/07/30 09:31:47;;;;;;;;;;;34.70;99.90;;;;;;5133618;27;20041;-75
2023/07/30 09:34:20;;;;;;;;;;;34.90;99.90;;;;;;5133545;27;20310;-75
2023/07/30 09:36:46;;;;;;;;;;;35.10;99.90;;;;;;5133472;27;19966;-75
2023/07/30 09:39:16;;;;;;;;;;;35.00;99.90;;;;;;5133558;27;20006;-75
2023/07/30 09:41:42;;;;;;;;;;;34.80;99.90;;;;;;5135893;27;19903;-75
2023/07/30 09:44:08;;;;;;;;;;;35.00;99.90;;;;;;5137853;27;19940;-75
2023/07/30 09:46:41;;;;;;;;;;;34.90;99.90;;;;;;5137707;27;19961;-75
2023/07/30 09:49:08;;;;;;;;;;;34.70;99.90;;;;;;5135832;27;19911;-75
2023/07/30 09:51:34;;;;;;;;;;;34.60;99.90;;;;;;5135834;27;20328;-74
2023/07/30 09:54:01;;;;;;;;;;;34.60;99.90;;;;;;5137725;27;19947;-73
2023/07/30 09:56:27;;;;;;;;;;;34.30;99.90;;;;;;5136899;27;20372;-72
2023/07/30 09:58:53;;;;;;;;;;;34.30;99.90;;;;;;5137700;27;19907;-73
2023/07/30 10:01:21;;;;;;;;;;;34.20;99.90;;;;;;5135787;27;19903;-74
2023/07/30 10:03:48;;;;;;;;;;;34.00;99.90;;;;;;5137036;27;20002;-73
2023/07/30 10:06:14;;;;;;;;;;;33.90;99.90;;;;;;5137488;27;19910;-74
2023/07/30 10:08:40;;;;;;;;;;;33.90;99.90;;;;;;5136903;27;20371;-74
2023/07/30 10:11:08;;;;;;;;;;;33.70;99.90;;;;;;5136633;27;19914;-74
2023/07/30 10:13:35;;;;;;;;;;;33.90;99.90;;;;;;5135351;27;19997;-73
2023/07/30 10:16:00;;;;;;;;;;;33.60;99.90;;;;;;5135389;27;19904;-73
2023/07/30 10:18:44;;;;;;;;;;;33.50;99.90;;;;;;5136785;27;19914;-74
2023/07/30 10:21:11;;;;;;;;;;;33.40;99.90;;;;;;5136563;27;19970;-74
2023/07/30 10:23:46;;;;;;;;;;;33.10;99.90;;;;;;5135295;27;19903;-73
2023/07/30 10:26:12;;;;;;;;;;;33.30;99.90;;;;;;5136811;27;20359;-73
2023/07/30 10:28:43;;;;;;;;;;;33.30;99.90;;;;;;5136525;27;19903;-73
2023/07/30 10:31:13;;;;;;;;;;;33.20;99.90;;;;;;5137083;27;20357;-73
2023/07/30 10:33:54;;;;;;;;;;;33.30;99.90;;;;;;5136458;27;19903;-73
2023/07/30 10:36:32;;;;;;;;;;;33.20;99.90;;;;;;5136729;27;19926;-73
2023/07/30 10:39:11;;;;;;;;;;;33.00;99.90;;;;;;5135290;27;20003;-74
2023/07/30 10:41:37;;;;;;;;;;;32.90;99.90;;;;;;5134860;27;19949;-73
2023/07/30 10:44:02;;;;;;;;;;;32.90;99.90;;;;;;5136485;27;19907;-73
2023/07/30 10:46:28;;;;;;;;;;;33.00;99.90;;;;;;5136549;27;19903;-73
2023/07/30 10:48:54;;;;;;;;;;;33.20;99.90;;;;;;5136095;27;19903;-73
2023/07/30 10:51:20;;;;;;;;;;;33.30;99.90;;;;;;5136080;27;19904;-74
2023/07/30 10:53:47;;;;;;;;;;;33.70;99.90;;;;;;5135276;27;19910;-73
2023/07/30 10:56:13;;;;;;;;;;;33.70;99.90;;;;;;5134533;27;19907;-73
2023/07/30 10:58:39;;;;;;;;;;;33.80;99.90;;;;;;5136117;27;19992;-72
2023/07/30 11:01:06;;;;;;;;;;;33.50;99.90;;;;;;5135981;27;19947;-74
2023/07/30 11:03:32;;;;;;;;;;;33.50;99.90;;;;;;5136468;27;19911;-73
2023/07/30 11:05:58;;;;;;;;;;;33.60;99.90;;;;;;5135885;27;20271;-74
2023/07/30 11:08:34;;;;;;;;;;;33.60;99.90;;;;;;5136135;27;19945;-73
2023/07/30 11:11:00;;;;;;;;;;;33.60;99.90;;;;;;5134189;27;19911;-74
2023/07/30 11:13:26;;;;;;;;;;;33.60;99.90;;;;;;5135936;27;19926;-74
2023/07/30 11:15:52;;;;;;;;;;;33.30;99.90;;;;;;5135808;27;20272;-74
2023/07/30 11:18:18;;;;;;;;;;;33.30;99.90;;;;;;5135664;27;20011;-74
2023/07/30 11:20:43;;;;;;;;;;;33.40;99.90;;;;;;5136045;27;19903;-74
2023/07/30 11:23:18;;;;;;;;;;;33.50;99.90;;;;;;5135587;27;20378;-74
2023/07/30 11:25:48;;;;;;;;;;;33.70;99.90;;;;;;5134163;27;19903;-74
2023/07/30 11:28:15;;;;;;;;;;;33.90;99.90;;;;;;5135354;27;19925;-74
2023/07/30 11:30:41;;;;;;;;;;;33.90;99.90;;;;;;5135535;27;20433;-73
2023/07/30 11:33:06;;;;;;;;;;;33.70;99.90;;;;;;5135380;27;19990;-74
2023/07/30 11:35:32;;;;;;;;;;;33.70;99.90;;;;;;5135191;27;19945;-74
2023/07/30 11:37:58;;;;;;;;;;;33.80;99.90;;;;;;5135691;27;20001;-74
2023/07/30 11:40:25;;;;;;;;;;;33.60;99.90;;;;;;5135116;27;19910;-74
2023/07/30 11:42:50;;;;;;;;;;;33.70;99.90;;;;;;5135034;27;19907;-75
2023/07/30 11:45:17;;;;;;;;;;;33.90;99.90;;;;;;5135314;27;20018;-74
2023/07/30 11:47:43;;;;;;;;;;;34.00;99.90;;;;;;5135087;27;19995;-74
2023/07/30 11:50:09;;;;;;;;;;;33.90;99.90;;;;;;5133705;27;20389;-74
2023/07/30 11:52:34;;;;;;;;;;;33.90;99.90;;;;;;5134843;27;19903;-74
2023/07/30 11:55:01;;;;;;;;;;;33.90;99.90;;;;;;5134924;27;19903;-74
2023/07/30 11:57:34;;;;;;;;;;;33.80;99.90;;;;;;5134879;27;19907;-74
2023/07/30 12:00:00;;;;;;;;;;;33.90;99.90;;;;;;5133465;27;19956;-74
2023/07/30 12:02:26;;;;;;;;;;;34.00;99.90;;;;;;5135045;27;19997;-74
2023/07/30 12:04:51;;;;;;;;;;;34.10;99.90;;;;;;5133077;27;19910;-74
2023/07/30 12:07:24;;;;;;;;;;;34.10;99.90;;;;;;5134937;27;19903;-74
2023/07/30 12:09:50;;;;;;;;;;;34.00;99.90;;;;;;5135099;27;19917;-74
2023/07/30 12:12:16;;;;;;;;;;;33.90;99.90;;;;;;5134505;27;19990;-71
2023/07/30 12:14:52;;;;;;;;;;;33.90;99.90;;;;;;5134834;27;19939;-73
2023/07/30 12:17:18;;;;;;;;;;;33.70;99.90;;;;;;5134878;27;19910;-74
2023/07/30 12:19:44;;;;;;;;;;;33.80;99.90;;;;;;5134398;27;19990;-75
2023/07/30 12:22:10;;;;;;;;;;;33.90;99.90;;;;;;5134341;27;19911;-74
2023/07/30 12:24:36;;;;;;;;;;;34.00;99.90;;;;;;5134907;27;19903;-74
2023/07/30 12:27:01;;;;;;;;;;;34.10;99.90;;;;;;5132867;27;19972;-74
2023/07/30 12:29:27;;;;;;;;;;;33.90;99.90;;;;;;5134217;27;19941;-74
2023/07/30 12:31:53;;;;;;;;;;;34.00;99.90;;;;;;5132630;27;19914;-74
2023/07/30 12:34:19;;;;;;;;;;;34.40;99.90;;;;;;5134007;27;19912;-74
2023/07/30 12:36:45;;;;;;;;;;;34.20;99.90;;;;;;5134460;27;19960;-74
2023/07/30 12:39:11;;;;;;;;;;;34.30;99.90;;;;;;5134350;27;19903;-74
2023/07/30 12:41:37;;;;;;;;;;;34.40;99.90;;;;;;5132671;27;19903;-73
2023/07/30 12:44:04;;;;;;;;;;;34.40;99.90;;;;;;5134119;27;19914;-74
2023/07/30 12:46:32;;;;;;;;;;;34.40;99.90;;;;;;5134447;27;19903;-74
2023/07/30 12:49:01;;;;;;;;;;;34.50;99.90;;;;;;5133947;27;19910;-75
2023/07/30 12:51:27;;;;;;;;;;;34.10;99.90;;;;;;5133955;27;20355;-73
2023/07/30 12:53:53;;;;;;;;;;;33.80;99.90;;;;;;5133895;27;19911;-74
2023/07/30 12:56:19;;;;;;;;;;;33.90;99.90;;;;;;5134178;27;19903;-73
2023/07/30 12:58:45;;;;;;;;;;;34.00;99.90;;;;;;5133844;28;19903;-74
2023/07/30 13:01:10;;;;;;;;;;;34.00;99.90;;;;;;5133898;27;19907;-74
2023/07/30 13:03:36;;;;;;;;;;;34.00;99.90;;;;;;5134094;27;19903;-72
2023/07/30 13:06:02;;;;;;;;;;;34.00;99.90;;;;;;5133875;27;20022;-74
2023/07/30 13:08:28;;;;;;;;;;;34.00;99.90;;;;;;5132512;28;19994;-73
2023/07/30 13:10:54;;;;;;;;;;;34.00;99.90;;;;;;5133780;28;19911;-74
2023/07/30 13:13:19;;;;;;;;;;;34.10;99.90;;;;;;5133667;28;19904;-74
2023/07/30 13:15:45;;;;;;;;;;;34.20;99.90;;;;;;5135414;27;19910;-73
2023/07/30 13:18:11;;;;;;;;;;;34.20;99.90;;;;;;5138467;27;19915;-76
2023/07/30 13:20:37;;;;;;;;;;;34.30;99.90;;;;;;5138517;27;19904;-74
2023/07/30 13:23:03;;;;;;;;;;;34.40;99.90;;;;;;5137800;27;19918;-74
2023/07/30 13:25:28;;;;;;;;;;;34.50;99.90;;;;;;5137799;27;20423;-74
2023/07/30 13:27:54;;;;;;;;;;;34.60;99.90;;;;;;5137693;27;19903;-74
2023/07/30 13:30:20;;;;;;;;;;;34.30;99.90;;;;;;5137985;27;19911;-74
2023/07/30 13:32:46;;;;;;;;;;;34.30;99.90;;;;;;5137677;27;19943;-74
2023/07/30 13:35:12;;;;;;;;;;;34.20;99.90;;;;;;5136086;27;20002;-74
2023/07/30 13:37:37;;;;;;;;;;;34.10;99.90;;;;;;5137849;27;19904;-73
2023/07/30 13:40:04;;;;;;;;;;;33.90;99.90;;;;;;5137641;27;20347;-73
2023/07/30 13:42:30;;;;;;;;;;;34.10;99.90;;;;;;5137524;27;19907;-74
2023/07/30 13:44:56;;;;;;;;;;;34.20;99.90;;;;;;5136070;27;19995;-74
2023/07/30 13:47:22;;;;;;;;;;;34.20;99.90;;;;;;5137480;27;19943;-73
2023/07/30 13:49:49;;;;;;;;;;;34.30;99.90;;;;;;5135884;27;19908;-73
2023/07/30 13:52:15;;;;;;;;;;;34.40;99.90;;;;;;5137509;27;19903;-74
2023/07/30 13:54:42;;;;;;;;;;;34.50;99.90;;;;;;5137372;27;19911;-73
2023/07/30 13:57:07;;;;;;;;;;;34.40;99.90;;;;;;5137269;27;19994;-74
2023/07/30 13:59:33;;;;;;;;;;;34.50;99.90;;;;;;5137153;27;19958;-74
2023/07/30 14:01:59;;;;;;;;;;;34.40;99.90;;;;;;5137064;27;20367;-73
2023/07/30 14:04:25;;;;;;;;;;;34.40;99.90;;;;;;5137519;27;19909;-74
2023/07/30 14:06:51;;;;;;;;;;;34.40;99.90;;;;;;5137465;27;19911;-75
2023/07/30 14:09:16;;;;;;;;;;;34.20;99.90;;;;;;5137606;27;20385;-74
2023/07/30 14:11:45;;;;;;;;;;;34.20;99.90;;;;;;5136859;27;19904;-74